Time;durP1;ratioP1;P1;durP2;ratioP2;P2;SDS_P1;SDS_P2;PMS_P1;PMS_P2;Temp;Humidity;BMP_temperature;BMP_pressure;BME280_temperature;BME280_humidity;BME280_pressure;Samples;Min_cycle;Max_cycle;Signal;HPM_P1;HPM_P2
2023/12/25 00:01:36;;;;;;;1.40;1.00;;;;;;;8.31;100.00;97497.38;4974295;28;20040;-79
2023/12/25 00:04:01;;;;;;;3.38;1.17;;;;;;;8.28;100.00;97489.94;4970469;28;20141;-78
2023/12/25 00:06:27;;;;;;;2.72;1.15;;;;;;;8.28;100.00;97469.47;4974019;28;20122;-78
2023/12/25 00:08:52;;;;;;;2.33;1.30;;;;;;;8.28;100.00;97482.75;4975579;28;20491;-79
2023/12/25 00:11:18;;;;;;;1.55;1.42;;;;;;;8.30;100.00;97493.13;4968890;28;20031;-79
2023/12/25 00:13:43;;;;;;;2.33;1.10;;;;;;;8.21;100.00;97489.41;4972955;28;20043;-79
2023/12/25 00:16:09;;;;;;;1.42;1.30;;;;;;;8.29;100.00;97504.84;4972566;28;20026;-79
2023/12/25 00:18:34;;;;;;;1.77;1.38;;;;;;;8.30;100.00;97509.06;4972611;28;20038;-79
2023/12/25 00:21:00;;;;;;;1.10;0.85;;;;;;;8.27;100.00;97496.31;4974490;28;20038;-79
2023/12/25 00:23:25;;;;;;;1.45;1.33;;;;;;;8.31;100.00;97505.34;4969252;28;20034;-79
2023/12/25 00:25:50;;;;;;;1.55;1.45;;;;;;;8.28;100.00;97519.97;4973139;28;20039;-80
2023/12/25 00:28:16;;;;;;;1.75;1.10;;;;;;;8.26;100.00;97513.31;4955725;28;20037;-79
2023/12/25 00:30:41;;;;;;;1.42;1.00;;;;;;;8.20;100.00;97499.22;4973577;28;20058;-80
2023/12/25 00:33:06;;;;;;;2.25;1.00;;;;;;;8.23;100.00;97508.53;4973106;28;20062;-79
2023/12/25 00:35:32;;;;;;;1.90;0.90;;;;;;;8.23;100.00;97516.50;4972205;28;21504;-80
2023/12/25 00:37:57;;;;;;;3.50;1.13;;;;;;;8.18;100.00;97500.53;4975478;28;20030;-79
2023/12/25 00:40:22;;;;;;;4.28;1.23;;;;;;;8.22;100.00;97504.25;4975130;28;20050;-79
2023/12/25 00:42:48;;;;;;;1.42;1.10;;;;;;;8.18;100.00;97501.34;4972111;28;20451;-79
2023/12/25 00:45:13;;;;;;;1.23;1.10;;;;;;;8.17;100.00;97509.56;4956770;28;20507;-79
2023/12/25 00:47:39;;;;;;;2.50;2.08;;;;;;;8.16;100.00;97489.38;4972462;28;20027;-79
2023/12/25 00:50:04;;;;;;;1.25;1.15;;;;;;;8.15;100.00;97471.84;4957830;28;20404;-80
2023/12/25 00:52:30;;;;;;;0.90;0.90;;;;;;;8.20;100.00;97471.84;4967815;28;20054;-79
2023/12/25 00:54:55;;;;;;;1.95;1.20;;;;;;;8.17;100.00;97483.00;4973450;28;20027;-80
2023/12/25 00:57:20;;;;;;;0.77;0.77;;;;;;;8.14;100.00;97475.56;4967939;28;20049;-79
2023/12/25 00:59:46;;;;;;;1.45;1.35;;;;;;;8.18;100.00;97484.59;4957034;28;20062;-79
2023/12/25 01:02:11;;;;;;;1.45;1.35;;;;;;;8.15;100.00;97495.75;4971543;28;20022;-79
2023/12/25 01:04:37;;;;;;;3.00;1.20;;;;;;;8.12;100.00;97494.44;4972116;28;20039;-78
2023/12/25 01:07:02;;;;;;;1.30;1.20;;;;;;;8.17;100.00;97496.28;4973572;28;20570;-78
2023/12/25 01:09:28;;;;;;;1.88;1.77;;;;;;;8.17;100.00;97489.09;4971625;28;20046;-78
2023/12/25 01:11:53;;;;;;;1.48;1.08;;;;;;;8.15;100.00;97493.09;4969619;28;20035;-79
2023/12/25 01:14:18;;;;;;;1.33;1.20;;;;;;;8.19;100.00;97488.88;4972021;28;20038;-78
2023/12/25 01:16:44;;;;;;;0.60;0.60;;;;;;;8.21;100.00;97476.09;4972302;28;20027;-79
2023/12/25 01:19:09;;;;;;;1.30;1.00;;;;;;;8.22;100.00;97475.03;4971704;28;20039;-79
2023/12/25 01:21:35;;;;;;;1.98;1.02;;;;;;;8.21;100.00;97476.09;4965385;28;20492;-78
2023/12/25 01:24:00;;;;;;;1.98;1.10;;;;;;;8.26;100.00;97492.06;4971841;28;20402;-79
2023/12/25 01:26:26;;;;;;;1.23;1.13;;;;;;;8.26;100.00;97478.78;4971066;28;20562;-79
2023/12/25 01:28:51;;;;;;;1.83;1.00;;;;;;;8.21;100.00;97482.19;4972279;28;20034;-78
2023/12/25 01:31:17;;;;;;;1.23;1.13;;;;;;;8.19;100.00;97478.22;4972591;28;20036;-78
2023/12/25 01:33:42;;;;;;;1.25;1.05;;;;;;;8.21;100.00;97484.06;4972455;28;20130;-79
2023/12/25 01:36:07;;;;;;;1.00;1.00;;;;;;;8.19;100.00;97497.63;4972263;28;20058;-78
2023/12/25 01:38:33;;;;;;;2.90;1.00;;;;;;;8.23;100.00;97497.91;4974358;28;20054;-78
2023/12/25 01:40:58;;;;;;;1.40;1.13;;;;;;;8.20;100.00;97509.03;4985753;28;20039;-78
2023/12/25 01:43:23;;;;;;;2.10;1.30;;;;;;;8.19;100.00;97512.78;4972429;28;20030;-79
2023/12/25 01:45:49;;;;;;;1.40;1.13;;;;;;;8.25;100.00;97514.38;4971674;28;20066;-78
2023/12/25 01:48:15;;;;;;;1.35;1.25;;;;;;;8.23;100.00;97511.19;4977413;28;20034;-79
2023/12/25 01:50:40;;;;;;;2.00;1.50;;;;;;;8.23;100.00;97516.50;4969942;28;20037;-79
2023/12/25 01:53:06;;;;;;;1.08;0.98;;;;;;;8.19;100.00;97513.56;4974927;28;20364;-79
2023/12/25 01:55:31;;;;;;;2.28;0.90;;;;;;;8.22;100.00;97522.88;4975431;28;20046;-79
2023/12/25 01:57:57;;;;;;;1.25;1.15;;;;;;;8.25;100.00;97527.66;4989294;28;20664;-79
2023/12/25 02:00:22;;;;;;;0.82;0.82;;;;;;;8.17;100.00;97509.56;4973239;28;20569;-79
2023/12/25 02:02:48;;;;;;;0.73;0.70;;;;;;;8.20;100.00;97509.84;4971488;28;20038;-79
2023/12/25 02:05:13;;;;;;;1.45;0.95;;;;;;;8.20;100.00;97530.31;4968430;28;20392;-79
2023/12/25 02:07:39;;;;;;;3.35;0.90;;;;;;;8.22;100.00;97530.84;4969391;28;20128;-79
2023/12/25 02:10:06;;;;;;;0.40;0.40;;;;;;;8.21;100.00;97531.91;4969157;28;20599;-79
2023/12/25 02:12:32;;;;;;;0.90;0.90;;;;;;;8.22;100.00;97529.00;4968973;28;20462;-77
2023/12/25 02:14:58;;;;;;;1.83;0.70;;;;;;;8.19;100.00;97542.03;4952060;28;20122;-77
2023/12/25 02:17:23;;;;;;;1.40;1.30;;;;;;;8.22;100.00;97542.28;4968355;28;20030;-78
2023/12/25 02:19:49;;;;;;;1.83;1.20;;;;;;;8.14;100.00;97537.50;4970603;28;20173;-77
2023/12/25 02:22:14;;;;;;;1.45;1.23;;;;;;;8.17;100.00;97536.16;4970617;28;20029;-77
2023/12/25 02:24:48;;;;;;;1.23;1.15;;;;;;;8.17;100.00;97533.47;4969141;28;20495;-78
2023/12/25 02:27:14;;;;;;;1.95;1.20;;;;;;;8.12;100.00;97510.38;4967557;28;20061;-78
2023/12/25 02:29:39;;;;;;;1.30;1.20;;;;;;;8.11;100.00;97514.09;4970171;28;20449;-77
2023/12/25 02:32:04;;;;;;;1.60;1.50;;;;;;;8.14;100.00;97512.78;4973347;28;20023;-78
2023/12/25 02:34:30;;;;;;;0.95;0.95;;;;;;;8.13;100.00;97517.28;4970866;28;20038;-77
2023/12/25 02:36:55;;;;;;;1.00;1.00;;;;;;;8.06;100.00;97508.00;4974850;28;20052;-77
2023/12/25 02:39:21;;;;;;;1.30;1.25;;;;;;;8.15;100.00;97503.72;4972311;28;20114;-77
2023/12/25 02:41:46;;;;;;;1.70;1.60;;;;;;;8.17;100.00;97509.56;4973463;28;20043;-77
2023/12/25 02:44:11;;;;;;;1.20;1.20;;;;;;;8.17;100.00;97494.44;4975238;28;20034;-78
2023/12/25 02:46:37;;;;;;;1.38;1.27;;;;;;;8.16;100.00;97513.31;4949221;28;20047;-78
2023/12/25 02:49:02;;;;;;;2.55;1.23;;;;;;;8.10;100.00;97491.22;4973258;28;20034;-78
2023/12/25 02:51:27;;;;;;;1.52;1.42;;;;;;;8.17;100.00;97504.25;4971421;28;20023;-77
2023/12/25 02:53:53;;;;;;;1.92;1.20;;;;;;;8.13;100.00;97504.00;4967997;28;20034;-77
2023/12/25 02:56:18;;;;;;;1.08;1.08;;;;;;;8.09;100.00;97497.63;4972264;28;20023;-77
2023/12/25 02:58:43;;;;;;;1.77;0.93;;;;;;;8.14;100.00;97496.81;4971005;28;20125;-77
2023/12/25 03:01:09;;;;;;;0.93;0.90;;;;;;;8.11;100.00;97497.34;4974010;28;20125;-77
2023/12/25 03:03:34;;;;;;;1.20;1.02;;;;;;;8.16;100.00;97502.66;4975709;28;20125;-78
2023/12/25 03:05:59;;;;;;;0.80;0.80;;;;;;;8.11;100.00;97503.47;4977954;28;20085;-78
2023/12/25 03:08:25;;;;;;;0.70;0.70;;;;;;;8.16;100.00;97510.66;4974840;28;20077;-77
2023/12/25 03:10:50;;;;;;;0.93;0.93;;;;;;;8.15;100.00;97503.72;4985477;28;20045;-78
2023/12/25 03:13:15;;;;;;;0.55;0.55;;;;;;;8.16;100.00;97518.63;4972709;28;20041;-77
2023/12/25 03:15:41;;;;;;;0.80;0.80;;;;;;;8.22;100.00;97525.53;4974416;28;20035;-77
2023/12/25 03:18:06;;;;;;;0.80;0.80;;;;;;;8.14;100.00;97513.56;4973499;28;20037;-79
2023/12/25 03:20:31;;;;;;;0.70;0.70;;;;;;;8.19;100.00;97531.38;4976082;28;20098;-78
2023/12/25 03:22:57;;;;;;;0.77;0.77;;;;;;;8.18;100.00;97532.44;4991689;28;20508;-78
2023/12/25 03:25:23;;;;;;;1.00;1.00;;;;;;;8.19;100.00;97534.81;4973889;28;20495;-77
2023/12/25 03:27:49;;;;;;;4.07;1.58;;;;;;;8.27;100.00;97534.34;4971267;28;20497;-77
2023/12/25 03:30:14;;;;;;;1.00;1.00;;;;;;;8.25;100.00;97538.28;4973960;28;20027;-77
2023/12/25 03:32:40;;;;;;;2.70;1.52;;;;;;;8.21;100.00;97538.00;4963804;28;20037;-78
2023/12/25 03:35:05;;;;;;;0.93;0.93;;;;;;;8.23;100.00;97535.09;4971854;28;20070;-77
2023/12/25 03:37:31;;;;;;;0.90;0.90;;;;;;;8.17;100.00;97536.16;4968651;28;20042;-78
2023/12/25 03:39:57;;;;;;;8.82;1.20;;;;;;;8.20;100.00;97535.63;4972881;28;20530;-78
2023/12/25 03:42:23;;;;;;;0.80;0.80;;;;;;;8.13;100.00;97533.22;4970973;28;20117;-77
2023/12/25 03:44:48;;;;;;;0.90;0.90;;;;;;;8.14;100.00;97536.69;4965613;28;20687;-78
2023/12/25 03:47:13;;;;;;;1.20;0.90;;;;;;;8.16;100.00;97534.56;4973747;28;20038;-77
2023/12/25 03:49:39;;;;;;;0.52;0.52;;;;;;;8.19;100.00;97523.41;4972431;28;20045;-77
2023/12/25 03:52:05;;;;;;;2.03;0.60;;;;;;;8.20;100.00;97517.81;4976077;28;20106;-77
2023/12/25 03:54:30;;;;;;;0.80;0.80;;;;;;;8.09;100.00;97516.22;4975124;28;20034;-79
2023/12/25 03:56:56;;;;;;;0.50;0.50;;;;;;;8.17;100.00;97512.22;4960800;28;20018;-77
2023/12/25 03:59:21;;;;;;;1.05;0.75;;;;;;;8.19;100.00;97512.78;4966365;28;20448;-79
2023/12/25 04:01:47;;;;;;;0.88;0.88;;;;;;;8.17;100.00;97515.69;4974904;28;20109;-78
2023/12/25 04:04:12;;;;;;;0.75;0.75;;;;;;;8.17;100.00;97526.31;4976065;28;20553;-78
2023/12/25 04:06:37;;;;;;;0.93;0.93;;;;;;;8.16;100.00;97516.75;4977517;28;20031;-78
2023/12/25 04:09:06;;;;;;;0.70;0.70;;;;;;;8.19;100.00;97539.38;4970842;28;20173;-77
2023/12/25 04:11:31;;;;;;;1.25;1.02;;;;;;;8.22;100.00;97534.31;4972987;28;20034;-77
2023/12/25 04:13:58;;;;;;;0.80;0.80;;;;;;;8.19;100.00;97507.47;4975480;28;20076;-77
2023/12/25 04:16:24;;;;;;;0.90;0.90;;;;;;;8.25;100.00;97527.66;4972707;28;20029;-78
2023/12/25 04:18:54;;;;;;;1.17;1.08;;;;;;;8.27;100.00;97521.06;4975254;28;20117;-77
2023/12/25 04:21:23;;;;;;;0.85;0.85;;;;;;;8.17;100.00;97531.63;4974393;28;20030;-78
2023/12/25 04:23:50;;;;;;;1.30;1.08;;;;;;;8.18;100.00;97529.78;4951252;28;20038;-78
2023/12/25 04:26:16;;;;;;;3.10;0.98;;;;;;;8.25;100.00;97527.66;4977444;28;20031;-78
2023/12/25 04:28:41;;;;;;;1.13;1.02;;;;;;;8.18;100.00;97517.28;4975792;28;20097;-78
2023/12/25 04:31:06;;;;;;;1.30;1.00;;;;;;;8.28;100.00;97527.16;4975231;28;20041;-78
2023/12/25 04:33:32;;;;;;;1.27;1.00;;;;;;;8.22;100.00;97530.84;4977312;28;20039;-78
2023/12/25 04:35:57;;;;;;;2.00;0.60;;;;;;;8.22;100.00;97529.00;4969427;28;20035;-78
2023/12/25 04:38:22;;;;;;;0.88;0.88;;;;;;;8.28;100.00;97541.25;4976927;28;20438;-78
2023/12/25 04:40:50;;;;;;;0.93;0.93;;;;;;;8.23;100.00;97541.19;4966662;28;20046;-78
2023/12/25 04:43:15;;;;;;;1.02;0.93;;;;;;;8.22;100.00;97542.28;4985740;28;20121;-78
2023/12/25 04:45:40;;;;;;;0.98;0.88;;;;;;;8.19;100.00;97534.81;4973687;28;20121;-78
2023/12/25 04:48:06;;;;;;;0.60;0.52;;;;;;;8.22;100.00;97534.31;4969083;28;20035;-78
2023/12/25 04:50:33;;;;;;;2.20;0.90;;;;;;;8.24;100.00;97539.34;4972671;28;20054;-78
2023/12/25 04:52:58;;;;;;;0.80;0.80;;;;;;;8.19;100.00;97537.47;4970319;28;20019;-78
2023/12/25 04:55:24;;;;;;;1.77;1.10;;;;;;;8.25;100.00;97548.94;4969835;28;20027;-78
2023/12/25 04:57:49;;;;;;;0.90;0.90;;;;;;;8.27;100.00;97557.47;4970256;28;20130;-77
2023/12/25 05:00:15;;;;;;;1.15;0.63;;;;;;;8.28;100.00;97543.91;4973202;28;20063;-78
2023/12/25 05:02:40;;;;;;;0.80;0.80;;;;;;;8.30;100.00;97547.09;4974142;28;20122;-78
2023/12/25 05:05:05;;;;;;;0.85;0.85;;;;;;;8.29;100.00;97550.81;4972087;28;20579;-78
2023/12/25 05:07:31;;;;;;;0.68;0.60;;;;;;;8.36;100.00;97550.56;4971682;28;20090;-77
2023/12/25 05:09:56;;;;;;;1.17;0.80;;;;;;;8.42;100.00;97546.84;4970560;28;20093;-78
2023/12/25 05:12:22;;;;;;;0.98;0.98;;;;;;;8.33;100.00;97548.41;4970872;28;20495;-78
2023/12/25 05:14:47;;;;;;;1.50;1.40;;;;;;;8.40;100.00;97556.94;4974024;28;20031;-78
2023/12/25 05:17:13;;;;;;;0.98;0.88;;;;;;;8.45;100.00;97556.94;4968697;28;20038;-78
2023/12/25 05:19:38;;;;;;;0.95;0.88;;;;;;;8.32;100.00;97556.66;4976047;28;20483;-78
2023/12/25 05:22:05;;;;;;;2.10;0.77;;;;;;;8.31;100.00;97555.88;4977504;28;20065;-78
2023/12/25 05:24:31;;;;;;;0.82;0.82;;;;;;;8.35;100.00;97570.22;4971973;28;20054;-78
2023/12/25 05:26:56;;;;;;;0.80;0.80;;;;;;;8.33;100.00;97556.41;4969632;28;20480;-78
2023/12/25 05:29:22;;;;;;;1.20;1.13;;;;;;;8.35;100.00;97553.47;4968952;28;20042;-76
2023/12/25 05:31:47;;;;;;;0.88;0.88;;;;;;;8.37;100.00;97573.41;4968923;28;20034;-76
2023/12/25 05:34:12;;;;;;;0.85;0.82;;;;;;;8.37;100.00;97570.75;4968458;28;20118;-77
2023/12/25 05:36:38;;;;;;;1.13;1.08;;;;;;;8.39;100.00;97581.91;4969962;28;20046;-77
2023/12/25 05:39:03;;;;;;;1.13;1.02;;;;;;;8.37;100.00;97592.00;4970408;28;20046;-78
2023/12/25 05:41:29;;;;;;;1.00;0.90;;;;;;;8.43;100.00;97593.59;4973225;28;20130;-78
2023/12/25 05:43:54;;;;;;;1.27;1.17;;;;;;;8.41;100.00;97576.34;4967991;28;20039;-79
2023/12/25 05:46:20;;;;;;;3.00;1.30;;;;;;;8.39;100.00;97576.59;4992874;28;20406;-79
2023/12/25 05:48:46;;;;;;;1.20;1.10;;;;;;;8.35;100.00;97575.53;4970378;28;20035;-77
2023/12/25 05:51:11;;;;;;;1.60;1.33;;;;;;;8.40;100.00;97583.53;4972880;28;20023;-78
2023/12/25 05:53:36;;;;;;;1.20;1.20;;;;;;;8.47;100.00;97589.38;4987328;28;20138;-77
2023/12/25 05:56:03;;;;;;;1.35;1.25;;;;;;;8.50;100.00;97598.66;4972150;28;20490;-77
2023/12/25 05:58:29;;;;;;;1.50;1.40;;;;;;;8.48;100.00;97598.94;4971623;28;20412;-78
2023/12/25 06:00:54;;;;;;;2.97;1.50;;;;;;;8.46;100.00;97601.06;4966699;28;20089;-77
2023/12/25 06:03:20;;;;;;;1.13;1.10;;;;;;;8.42;100.00;97601.84;4972763;28;20082;-78
2023/12/25 06:05:45;;;;;;;2.35;1.70;;;;;;;8.44;100.00;97594.41;4968390;28;20038;-77
2023/12/25 06:08:10;;;;;;;3.63;2.25;;;;;;;8.42;100.00;97596.53;4972168;28;20039;-79
2023/12/25 06:10:36;;;;;;;2.95;1.70;;;;;;;8.42;100.00;97601.84;4992384;28;20102;-78
2023/12/25 06:13:01;;;;;;;3.03;2.40;;;;;;;8.45;100.00;97610.13;4961609;28;20616;-78
2023/12/25 06:15:26;;;;;;;2.20;2.00;;;;;;;8.37;100.00;97594.69;4972802;28;20027;-78
2023/12/25 06:17:52;;;;;;;1.70;1.52;;;;;;;8.37;100.00;97615.13;4978445;28;20109;-78
2023/12/25 06:20:17;;;;;;;3.97;2.60;;;;;;;8.43;100.00;97609.56;4984507;28;20042;-78
2023/12/25 06:22:43;;;;;;;2.50;2.30;;;;;;;8.45;100.00;97627.94;4976824;28;20035;-78
2023/12/25 06:25:08;;;;;;;6.15;3.03;;;;;;;8.48;100.00;97622.06;4975146;28;20102;-78
2023/12/25 06:27:33;;;;;;;2.83;2.40;;;;;;;8.43;100.00;97622.84;4975357;28;20027;-79
2023/12/25 06:29:59;;;;;;;2.42;1.77;;;;;;;8.43;100.00;97622.84;4975889;28;20043;-78
2023/12/25 06:32:24;;;;;;;1.95;1.77;;;;;;;8.45;100.00;97636.72;4972979;28;20030;-78
2023/12/25 06:34:49;;;;;;;3.05;2.70;;;;;;;8.46;100.00;97632.16;4987494;28;20039;-78
2023/12/25 06:37:15;;;;;;;3.25;2.20;;;;;;;8.45;100.00;97639.38;4977407;28;20082;-78
2023/12/25 06:39:40;;;;;;;6.75;2.35;;;;;;;8.48;99.69;97640.69;4978089;28;20133;-78
2023/12/25 06:42:05;;;;;;;3.42;2.53;;;;;;;8.48;99.51;97646.00;4974048;28;20435;-77
2023/12/25 06:44:31;;;;;;;5.18;2.45;;;;;;;8.49;99.46;97645.75;4959394;28;20384;-77
2023/12/25 06:46:56;;;;;;;3.72;2.45;;;;;;;8.47;99.70;97650.53;4974025;28;20365;-76
2023/12/25 06:49:21;;;;;;;2.33;2.13;;;;;;;8.45;99.23;97654.53;4966221;28;20065;-77
2023/12/25 06:51:47;;;;;;;3.65;2.50;;;;;;;8.49;99.64;97650.25;4971674;28;20062;-77
2023/12/25 06:54:12;;;;;;;2.63;2.40;;;;;;;8.47;99.42;97642.56;4973555;28;20045;-77
2023/12/25 06:56:38;;;;;;;3.28;2.97;;;;;;;8.48;99.12;97664.59;4970651;28;20027;-77
2023/12/25 06:59:03;;;;;;;4.82;2.90;;;;;;;8.55;99.38;97654.53;4966904;28;20059;-77
2023/12/25 07:01:28;;;;;;;4.68;2.88;;;;;;;8.52;98.98;97658.50;4973133;28;20490;-77
2023/12/25 07:03:54;;;;;;;3.50;3.20;;;;;;;8.55;99.30;97665.16;4971495;28;21333;-77
2023/12/25 07:06:19;;;;;;;2.90;2.42;;;;;;;8.48;99.06;97654.78;4952792;28;20027;-77
2023/12/25 07:08:45;;;;;;;4.47;3.40;;;;;;;8.51;99.94;97648.94;4969393;28;20039;-78
2023/12/25 07:11:11;;;;;;;3.95;3.30;;;;;;;8.49;99.18;97653.72;4972345;28;20099;-77
2023/12/25 07:13:37;;;;;;;3.60;3.28;;;;;;;8.56;99.49;97659.56;4970552;28;20038;-78
2023/12/25 07:16:03;;;;;;;4.40;3.40;;;;;;;8.52;99.50;97650.53;4972494;28;20059;-77
2023/12/25 07:18:29;;;;;;;4.07;3.40;;;;;;;8.55;99.70;97659.84;4971287;28;20039;-78
2023/12/25 07:20:54;;;;;;;3.53;3.13;;;;;;;8.49;99.74;97677.66;4970331;28;20101;-77
2023/12/25 07:23:21;;;;;;;3.53;3.22;;;;;;;8.53;100.00;97669.94;4971799;28;20058;-77
2023/12/25 07:25:47;;;;;;;3.78;3.47;;;;;;;8.48;100.00;97673.41;4974796;28;20070;-77
2023/12/25 07:28:13;;;;;;;3.88;3.55;;;;;;;8.41;100.00;97685.34;4973848;28;20061;-77
2023/12/25 07:30:38;;;;;;;4.28;3.85;;;;;;;8.36;100.00;97686.13;4963854;28;20047;-76
2023/12/25 07:33:04;;;;;;;4.93;3.75;;;;;;;8.38;100.00;97675.22;4967449;28;20031;-76
2023/12/25 07:35:29;;;;;;;3.53;3.22;;;;;;;8.41;100.00;97691.44;4971991;28;20532;-76
2023/12/25 07:37:54;;;;;;;4.60;3.15;;;;;;;8.38;100.00;97677.91;4970204;28;20066;-77
2023/12/25 07:40:20;;;;;;;3.70;3.40;;;;;;;8.39;100.00;97688.25;4970421;28;20475;-77
2023/12/25 07:42:45;;;;;;;5.03;3.72;;;;;;;8.44;100.00;97698.91;4970339;28;20053;-77
2023/12/25 07:45:12;;;;;;;4.18;3.13;;;;;;;8.45;100.00;97695.22;4972158;28;20078;-77
2023/12/25 07:47:38;;;;;;;4.57;3.60;;;;;;;8.43;100.00;97710.59;4967282;28;20039;-77
2023/12/25 07:50:04;;;;;;;2.97;2.70;;;;;;;8.38;100.00;97691.19;4969324;28;20504;-78
2023/12/25 07:52:30;;;;;;;4.30;3.58;;;;;;;8.34;100.00;97698.09;4970324;28;20035;-77
2023/12/25 07:54:56;;;;;;;3.17;2.65;;;;;;;8.34;100.00;97692.78;4968673;28;20038;-77
2023/12/25 07:57:22;;;;;;;3.45;3.15;;;;;;;8.38;100.00;97707.13;4971387;28;20031;-77
2023/12/25 07:59:48;;;;;;;3.50;3.10;;;;;;;8.46;100.00;97704.75;4968587;28;20031;-77
2023/12/25 08:02:14;;;;;;;6.43;3.13;;;;;;;8.41;100.00;97688.78;4970487;28;20510;-78
2023/12/25 08:04:40;;;;;;;2.30;2.10;;;;;;;8.38;100.00;97707.94;4969102;28;20114;-77
2023/12/25 08:07:05;;;;;;;2.53;2.30;;;;;;;8.32;100.00;97709.00;4967784;28;20082;-78
2023/12/25 08:09:31;;;;;;;2.53;2.13;;;;;;;8.38;100.00;97731.06;4968024;28;20495;-77
2023/12/25 08:11:56;;;;;;;3.65;3.00;;;;;;;8.42;100.00;97730.28;4969904;28;20026;-77
2023/12/25 08:14:22;;;;;;;3.17;2.88;;;;;;;8.48;100.00;97725.78;4971314;28;20035;-77
2023/12/25 08:16:47;;;;;;;2.22;2.00;;;;;;;8.33;100.00;97726.53;4969598;28;20038;-79
2023/12/25 08:19:12;;;;;;;1.83;1.73;;;;;;;8.29;100.00;97734.25;4972009;28;20034;-78
2023/12/25 08:21:40;;;;;;;3.03;2.72;;;;;;;8.45;100.00;97728.97;4973614;28;20078;-78
2023/12/25 08:24:05;;;;;;;5.05;2.08;;;;;;;8.18;100.00;97743.19;4973357;28;20077;-78
2023/12/25 08:26:31;;;;;;;3.47;2.80;;;;;;;8.40;100.00;97751.03;4970714;28;20019;-78
2023/12/25 08:28:58;;;;;;;6.80;2.95;;;;;;;8.40;100.00;97753.69;4966834;28;20137;-76
2023/12/25 08:31:23;;;;;;;5.45;3.08;;;;;;;8.51;100.00;97767.81;4964748;28;20698;-77
2023/12/25 08:33:48;;;;;;;2.65;2.25;;;;;;;8.48;100.00;97749.69;4968119;28;20542;-78
2023/12/25 08:36:14;;;;;;;3.55;2.55;;;;;;;8.47;100.00;97764.88;4950784;28;20026;-78
2023/12/25 08:38:39;;;;;;;4.93;2.22;;;;;;;8.49;100.00;97770.72;4970868;28;20381;-78
2023/12/25 08:41:05;;;;;;;2.47;1.98;;;;;;;8.46;100.00;97778.41;4974262;28;20043;-77
2023/12/25 08:43:31;;;;;;;5.70;2.40;;;;;;;8.44;100.00;97770.69;4972619;28;20043;-77
2023/12/25 08:45:57;;;;;;;2.40;2.20;;;;;;;8.38;100.00;97760.31;4967146;28;20037;-77
2023/12/25 08:48:23;;;;;;;1.80;1.60;;;;;;;8.35;100.00;97761.63;4960237;28;20039;-77
2023/12/25 08:50:49;;;;;;;5.28;1.40;;;;;;;8.44;100.00;97761.91;4971382;28;20058;-77
2023/12/25 08:53:14;;;;;;;2.00;1.80;;;;;;;8.44;100.00;97776.03;4971353;28;20503;-77
2023/12/25 08:55:40;;;;;;;0.98;0.82;;;;;;;8.46;100.00;97781.06;4970128;28;20085;-77
2023/12/25 08:58:05;;;;;;;1.33;1.20;;;;;;;8.46;100.00;97779.22;4969348;28;20058;-77
2023/12/25 09:00:31;;;;;;;1.75;1.65;;;;;;;8.44;100.00;97768.03;4965574;28;20106;-77
2023/12/25 09:02:56;;;;;;;1.90;1.60;;;;;;;8.57;100.00;97788.84;4967727;28;20499;-77
2023/12/25 09:05:21;;;;;;;2.35;1.85;;;;;;;8.52;100.00;97778.16;4961732;28;20034;-77
2023/12/25 09:07:47;;;;;;;1.60;1.50;;;;;;;8.55;100.00;97782.97;4961210;28;20444;-77
2023/12/25 09:10:12;;;;;;;1.85;1.67;;;;;;;8.59;100.00;97802.66;4957954;28;20035;-77
2023/12/25 09:12:38;;;;;;;2.17;1.42;;;;;;;8.51;100.00;97802.38;4965898;28;20054;-77
2023/12/25 09:15:04;;;;;;;3.40;1.52;;;;;;;8.39;100.00;97818.53;4960759;28;20121;-77
2023/12/25 09:17:30;;;;;;;1.35;1.00;;;;;;;8.38;100.00;97813.47;4978499;28;20026;-77
2023/12/25 09:19:56;;;;;;;1.13;0.90;;;;;;;8.41;100.00;97824.38;4958832;28;20054;-77
2023/12/25 09:22:23;;;;;;;1.13;1.00;;;;;;;8.41;100.00;97818.28;4964353;28;20488;-78
2023/12/25 09:24:50;;;;;;;1.38;0.70;;;;;;;8.32;100.00;97823.31;4963644;28;20039;-77
2023/12/25 09:27:16;;;;;;;0.85;0.80;;;;;;;8.35;100.00;97801.50;4966947;28;20480;-78
2023/12/25 09:29:42;;;;;;;0.68;0.68;;;;;;;8.47;100.00;97822.56;4968118;28;20033;-78
2023/12/25 09:32:07;;;;;;;0.70;0.70;;;;;;;8.40;100.00;97824.66;4967277;28;20049;-77
2023/12/25 09:34:32;;;;;;;0.70;0.70;;;;;;;8.32;100.00;97818.78;4963551;28;20034;-77
2023/12/25 09:36:58;;;;;;;0.63;0.63;;;;;;;8.42;100.00;97823.34;4965837;28;20061;-78
2023/12/25 09:39:24;;;;;;;1.40;0.77;;;;;;;8.43;100.00;97822.28;4957222;28;20074;-78
2023/12/25 09:41:50;;;;;;;0.60;0.60;;;;;;;8.46;100.00;97813.78;4970097;28;20074;-78
2023/12/25 09:44:16;;;;;;;1.42;0.75;;;;;;;8.48;100.00;97816.97;4984740;28;20089;-77
2023/12/25 09:46:42;;;;;;;1.92;1.38;;;;;;;8.48;100.00;97824.97;4971698;28;20038;-77
2023/12/25 09:49:07;;;;;;;1.30;1.13;;;;;;;8.40;100.00;97819.34;4967108;28;20031;-78
2023/12/25 09:51:34;;;;;;;3.65;1.30;;;;;;;8.38;100.00;97832.91;4969987;28;20026;-77
2023/12/25 09:54:00;;;;;;;3.45;1.40;;;;;;;8.48;100.00;97835.59;4972484;28;20033;-77
2023/12/25 09:56:27;;;;;;;3.33;1.63;;;;;;;8.52;100.00;97847.31;4973219;28;20031;-78
2023/12/25 09:58:54;;;;;;;3.17;2.00;;;;;;;8.48;100.00;97843.56;4967766;28;20073;-78
2023/12/25 10:01:20;;;;;;;9.35;2.22;;;;;;;8.48;100.00;97845.44;4966612;28;20078;-77
2023/12/25 10:03:46;;;;;;;4.32;2.38;;;;;;;8.32;100.00;97841.91;4967938;28;20035;-77
2023/12/25 10:06:12;;;;;;;5.20;2.47;;;;;;;8.36;100.00;97843.00;4971653;28;20049;-76
2023/12/25 10:08:38;;;;;;;2.38;1.80;;;;;;;8.32;100.00;97842.69;4972237;28;20035;-77
2023/12/25 10:11:04;;;;;;;5.97;2.13;;;;;;;8.46;100.00;97852.88;4967302;28;20037;-78
2023/12/25 10:13:30;;;;;;;3.53;2.22;;;;;;;8.47;100.00;97844.66;4968801;28;20031;-77
2023/12/25 10:15:55;;;;;;;3.15;2.05;;;;;;;8.47;100.00;97843.84;4968507;28;20484;-78
2023/12/25 10:18:22;;;;;;;3.00;1.85;;;;;;;8.46;100.00;97851.00;4965396;28;20038;-77
2023/12/25 10:21:03;;;;;;;3.58;1.65;;;;;;;8.52;100.00;97847.31;4968238;28;20031;-78
2023/12/25 10:23:31;;;;;;;5.13;2.50;;;;;;;8.46;100.00;97851.00;4973195;28;20035;-77
2023/12/25 10:26:02;;;;;;;4.63;1.85;;;;;;;8.38;100.00;97824.13;4983114;28;20467;-77
2023/12/25 10:28:33;;;;;;;3.97;2.10;;;;;;;8.47;100.00;97851.81;4969631;28;20131;-77
2023/12/25 10:31:03;;;;;;;5.30;2.17;;;;;;;8.41;100.00;97850.19;4953092;28;20035;-78
2023/12/25 10:33:32;;;;;;;3.00;2.10;;;;;;;8.34;100.00;97855.75;4969099;28;20023;-77
2023/12/25 10:36:03;;;;;;;2.28;2.03;;;;;;;8.40;100.00;97846.75;4966108;28;20545;-77
2023/12/25 10:38:32;;;;;;;2.63;1.83;;;;;;;8.32;100.00;97858.66;4971480;28;20488;-78
2023/12/25 10:40:57;;;;;;;3.30;1.50;;;;;;;8.25;100.00;97847.47;4971648;28;20656;-78
2023/12/25 10:43:24;;;;;;;2.95;1.73;;;;;;;8.26;100.00;97854.38;4971754;28;20039;-77
2023/12/25 10:45:53;;;;;;;1.20;1.08;;;;;;;8.25;100.00;97859.91;4965302;28;20043;-78
2023/12/25 10:48:21;;;;;;;3.05;1.27;;;;;;;8.22;100.00;97855.09;4970835;28;20027;-77
2023/12/25 10:50:47;;;;;;;2.30;1.02;;;;;;;8.28;100.00;97848.78;4971831;28;20125;-78
2023/12/25 10:53:16;;;;;;;3.10;1.08;;;;;;;8.41;100.00;97847.53;4969729;28;20122;-77
2023/12/25 10:55:43;;;;;;;2.30;1.02;;;;;;;8.41;100.00;97858.97;4969156;28;20026;-77
2023/12/25 10:58:11;;;;;;;3.10;1.13;;;;;;;8.27;100.00;97849.84;4972517;28;20031;-77
2023/12/25 11:00:57;;;;;;;5.97;1.33;;;;;;;8.39;100.00;97844.34;4980667;28;20105;-77
2023/12/25 11:03:24;;;;;;;1.05;0.90;;;;;;;8.29;100.00;97842.44;4967731;28;20043;-77
2023/12/25 11:05:50;;;;;;;4.88;1.25;;;;;;;8.26;100.00;97842.94;4969194;28;20070;-77
2023/12/25 11:08:18;;;;;;;2.00;1.27;;;;;;;8.29;100.00;97837.09;4967107;28;20111;-77
2023/12/25 11:10:44;;;;;;;2.10;1.27;;;;;;;8.37;100.00;97852.56;4963598;28;20141;-77
2023/12/25 11:13:10;;;;;;;3.60;1.30;;;;;;;8.31;100.00;97842.97;4970968;28;20638;-77
2023/12/25 11:15:35;;;;;;;1.90;1.10;;;;;;;8.34;100.00;97844.31;4962239;28;20110;-78
2023/12/25 11:18:03;;;;;;;1.13;1.05;;;;;;;8.34;100.00;97852.28;4961469;28;20435;-77
2023/12/25 11:20:30;;;;;;;4.00;1.23;;;;;;;8.36;100.00;97835.03;4969382;28;20864;-77
2023/12/25 11:22:56;;;;;;;1.95;1.15;;;;;;;8.25;100.00;97842.16;4970904;28;20038;-78
2023/12/25 11:25:22;;;;;;;3.28;1.45;;;;;;;8.32;100.00;97841.13;4972805;28;20037;-77
2023/12/25 11:27:52;;;;;;;1.20;1.10;;;;;;;8.34;100.00;97852.28;4971673;28;20400;-78